Aérodrome :
LOGIN :

S'inscrire | Disclaimer

   EN    FR    IT 

 










Légende :    VFR   VFR Marginal   IFR   IFR Intensif   IFR Très Intensif
Visi : 
Plafond : 
>= 8 km
>= 3000ft
5 à 8 km
1000 à 3000 ft
1500m à 5 km
500 à 1000 ft
800 à 1500m
200 à 500 ft
< 800m
< 200 ft
Symboles :   Orages  Brouillard  Fortes neiges  Fortes précipitations  Vent > 20 kt
SIGMETs :   Divers  Orages  Givrage  Turbulence  Onde Orograph.  Cendres Volcan.






- Altitude de l'aérodrome : 699 ft
- Code IATA : PAD


EDLP - Paderborn Lippstadt

DERNIER METAR :
  • 240050Z 15004KT 9000 NSC M03/M04 Q1024

METARs EXPIRÉS :
  • 240020Z VRB02KT CAVOK M03/M04 Q1025
  • 232350Z VRB02KT 8000 NSC M03/M04 Q1025
  • 232320Z 17006KT CAVOK M03/M03 Q1025
  • 232250Z 16006KT CAVOK M02/M03 Q1025
  • 232220Z 17007KT CAVOK M02/M03 Q1026

TAF TAF EDLP
Valide du 24 à 00h jusqu'au 25 à 00h UTC


232300Z 2400/2424 17005KT CAVOK
TEMPO 2402/2410 4000 BR BKN010
BECMG 2407/2410 23004KT



MET'MAP, la Météo Aéronautique d'un coup d'oeil ! - Copyright ORBIFLY Décembre 2007 - Disclaimer

ORBIFLY MET'MAP TEAM :

Programmation & Développement : Alexandra Zaïnal
Sur une idée originale de : Baudouin d'Aumeries
Assistance à la programmation : Marc-Olivier Méhu
Soutien technique & logistique : Manuel Goepfert

Contact : metmap@orbifly.com




SOURCES & CREDITS :

   NOAA